sensor_id;sensor_type;location;lat;lon;timestamp;pressure;altitude;pressure_sealevel;temperature;humidity
41945;BME280;63122;52.424;13.458;2024-03-22T01:06:28;101448.25;;;7.35;100.00
41945;BME280;63122;52.424;13.458;2024-03-22T01:08:20;101442.28;;;7.33;100.00
41945;BME280;63122;52.424;13.458;2024-03-22T01:10:12;101434.53;;;7.31;100.00
41945;BME280;63122;52.424;13.458;2024-03-22T01:12:04;101436.59;;;7.39;100.00
41945;BME280;63122;52.424;13.458;2024-03-22T01:13:56;101434.91;;;7.38;100.00
41945;BME280;63122;52.424;13.458;2024-03-22T01:15:48;101429.16;;;7.33;100.00
41945;BME280;63122;52.424;13.458;2024-03-22T01:17:39;101434.53;;;7.31;100.00
41945;BME280;63122;52.424;13.458;2024-03-22T01:19:31;101435.84;;;7.37;100.00
41945;BME280;63122;52.424;13.458;2024-03-22T01:21:22;101434.09;;;7.38;100.00
41945;BME280;63122;52.424;13.458;2024-03-22T01:23:17;101419.16;;;7.38;100.00
41945;BME280;63122;52.424;13.458;2024-03-22T01:25:08;101423.59;;;7.38;100.00
41945;BME280;63122;52.424;13.458;2024-03-22T01:27:00;101414.38;;;7.32;100.00
41945;BME280;63122;52.424;13.458;2024-03-22T01:28:52;101422.59;;;7.27;100.00
41945;BME280;63122;52.424;13.458;2024-03-22T01:30:44;101416.16;;;7.31;100.00
41945;BME280;63122;52.424;13.458;2024-03-22T01:32:36;101418.06;;;7.29;100.00
41945;BME280;63122;52.424;13.458;2024-03-22T01:34:28;101420.63;;;7.18;100.00
41945;BME280;63122;52.424;13.458;2024-03-22T01:36:20;101413.28;;;7.10;100.00
41945;BME280;63122;52.424;13.458;2024-03-22T01:38:12;101420.34;;;7.10;100.00
41945;BME280;63122;52.424;13.458;2024-03-22T01:40:08;101424.53;;;7.12;100.00
41945;BME280;63122;52.424;13.458;2024-03-22T01:42:00;101420.84;;;7.15;100.00
41945;BME280;63122;52.424;13.458;2024-03-22T01:43:51;101418.84;;;7.18;100.00
41945;BME280;63122;52.424;13.458;2024-03-22T01:45:44;101410.47;;;7.13;100.00
41945;BME280;63122;52.424;13.458;2024-03-22T01:47:35;101418.13;;;7.16;100.00
41945;BME280;63122;52.424;13.458;2024-03-22T01:49:27;101412.25;;;7.13;100.00
41945;BME280;63122;52.424;13.458;2024-03-22T01:51:19;101414.16;;;7.11;100.00
41945;BME280;63122;52.424;13.458;2024-03-22T01:53:11;101402.91;;;7.09;100.00
41945;BME280;63122;52.424;13.458;2024-03-22T01:55:06;101401.03;;;7.11;100.00
41945;BME280;63122;52.424;13.458;2024-03-22T01:56:58;101397.53;;;7.10;100.00
41945;BME280;63122;52.424;13.458;2024-03-22T01:58:50;101397.69;;;7.09;100.00
41945;BME280;63122;52.424;13.458;2024-03-22T02:00:42;101396.28;;;7.16;100.00
41945;BME280;63122;52.424;13.458;2024-03-22T02:02:34;101396.09;;;7.06;100.00
41945;BME280;63122;52.424;13.458;2024-03-22T02:04:25;101399.56;;;7.06;100.00
41945;BME280;63122;52.424;13.458;2024-03-22T02:06:17;101398.63;;;7.08;100.00
41945;BME280;63122;52.424;13.458;2024-03-22T02:08:08;101390.75;;;7.08;100.00
41945;BME280;63122;52.424;13.458;2024-03-22T02:10:00;101385.72;;;7.04;100.00
41945;BME280;63122;52.424;13.458;2024-03-22T02:11:54;101391.53;;;6.97;100.00
41945;BME280;63122;52.424;13.458;2024-03-22T02:13:46;101386.06;;;7.00;100.00
41945;BME280;63122;52.424;13.458;2024-03-22T02:15:38;101383.34;;;7.01;100.00
41945;BME280;63122;52.424;13.458;2024-03-22T02:17:30;101384.06;;;7.03;100.00
41945;BME280;63122;52.424;13.458;2024-03-22T02:19:21;101390.84;;;7.06;100.00
41945;BME280;63122;52.424;13.458;2024-03-22T02:26:39;101387.50;;;7.04;100.00
41945;BME280;63122;52.424;13.458;2024-03-22T02:28:32;101389.13;;;6.94;100.00
41945;BME280;63122;52.424;13.458;2024-03-22T02:30:24;101386.00;;;6.88;100.00
41945;BME280;63122;52.424;13.458;2024-03-22T02:32:16;101390.28;;;6.89;100.00
41945;BME280;63122;52.424;13.458;2024-03-22T02:34:08;101377.06;;;6.91;100.00
41945;BME280;63122;52.424;13.458;2024-03-22T02:35:59;101382.06;;;6.94;100.00
41945;BME280;63122;52.424;13.458;2024-03-22T02:37:51;101363.22;;;6.89;100.00
41945;BME280;63122;52.424;13.458;2024-03-22T02:39:43;101361.53;;;6.88;100.00
41945;BME280;63122;52.424;13.458;2024-03-22T02:41:34;101357.47;;;6.84;100.00
41945;BME280;63122;52.424;13.458;2024-03-22T02:43:28;101353.25;;;6.81;100.00
41945;BME280;63122;52.424;13.458;2024-03-22T02:45:20;101358.63;;;6.80;100.00
41945;BME280;63122;52.424;13.458;2024-03-22T02:47:11;101361.25;;;6.80;100.00
41945;BME280;63122;52.424;13.458;2024-03-22T02:49:03;101355.06;;;6.81;100.00
41945;BME280;63122;52.424;13.458;2024-03-22T02:50:55;101355.16;;;6.79;100.00
41945;BME280;63122;52.424;13.458;2024-03-22T02:52:48;101353.25;;;6.81;100.00
41945;BME280;63122;52.424;13.458;2024-03-22T02:54:39;101346.91;;;6.72;100.00
41945;BME280;63122;52.424;13.458;2024-03-22T02:56:32;101351.94;;;6.75;100.00
41945;BME280;63122;52.424;13.458;2024-03-22T02:58:23;101349.91;;;6.79;100.00
41945;BME280;63122;52.424;13.458;2024-03-22T03:58:48;101247.38;;;6.71;100.00
41945;BME280;63122;52.424;13.458;2024-03-22T04:00:41;101248.31;;;6.70;100.00
41945;BME280;63122;52.424;13.458;2024-03-22T04:02:32;101239.84;;;6.66;100.00
41945;BME280;63122;52.424;13.458;2024-03-22T04:04:24;101234.50;;;6.68;100.00
41945;BME280;63122;52.424;13.458;2024-03-22T04:06:15;101235.84;;;6.73;100.00
41945;BME280;63122;52.424;13.458;2024-03-22T04:08:07;101219.97;;;6.75;100.00
41945;BME280;63122;52.424;13.458;2024-03-22T04:09:58;101216.97;;;6.68;100.00
41945;BME280;63122;52.424;13.458;2024-03-22T04:11:51;101224.63;;;6.71;100.00
41945;BME280;63122;52.424;13.458;2024-03-22T04:13:42;101219.97;;;6.75;100.00
41945;BME280;63122;52.424;13.458;2024-03-22T04:15:37;101222.00;;;6.71;100.00
41945;BME280;63122;52.424;13.458;2024-03-22T04:17:29;101219.47;;;6.70;100.00
41945;BME280;63122;52.424;13.458;2024-03-22T04:19:21;101212.34;;;6.72;100.00
41945;BME280;63122;52.424;13.458;2024-03-22T04:21:13;101201.22;;;6.68;100.00
41945;BME280;63122;52.424;13.458;2024-03-22T04:23:04;101205.75;;;6.66;100.00
41945;BME280;63122;52.424;13.458;2024-03-22T04:24:56;101197.44;;;6.72;100.00
41945;BME280;63122;52.424;13.458;2024-03-22T04:26:50;101198.59;;;6.68;100.00
41945;BME280;63122;52.424;13.458;2024-03-22T04:28:42;101192.03;;;6.62;100.00
41945;BME280;63122;52.424;13.458;2024-03-22T04:30:33;101198.72;;;6.67;100.00
41945;BME280;63122;52.424;13.458;2024-03-22T04:32:28;101196.44;;;6.62;100.00
41945;BME280;63122;52.424;13.458;2024-03-22T04:34:20;101199.06;;;6.62;100.00
41945;BME280;63122;52.424;13.458;2024-03-22T04:36:12;101193.81;;;6.62;100.00
41945;BME280;63122;52.424;13.458;2024-03-22T04:38:03;101203.25;;;6.65;100.00
41945;BME280;63122;52.424;13.458;2024-03-22T04:39:55;101195.63;;;6.61;100.00
41945;BME280;63122;52.424;13.458;2024-03-22T04:41:47;101189.19;;;6.66;100.00
41945;BME280;63122;52.424;13.458;2024-03-22T04:43:38;101183.22;;;6.63;100.00
41945;BME280;63122;52.424;13.458;2024-03-22T04:45:30;101186.81;;;6.62;100.00
41945;BME280;63122;52.424;13.458;2024-03-22T04:47:21;101177.28;;;6.61;100.00
41945;BME280;63122;52.424;13.458;2024-03-22T04:49:16;101171.16;;;6.61;100.00
41945;BME280;63122;52.424;13.458;2024-03-22T04:51:07;101178.22;;;6.60;100.00
41945;BME280;63122;52.424;13.458;2024-03-22T04:52:59;101167.97;;;6.57;100.00
41945;BME280;63122;52.424;13.458;2024-03-22T04:54:51;101166.88;;;6.60;100.00
41945;BME280;63122;52.424;13.458;2024-03-22T04:56:42;101168.22;;;6.66;100.00
41945;BME280;63122;52.424;13.458;2024-03-22T04:58:34;101168.31;;;6.64;100.00
41945;BME280;63122;52.424;13.458;2024-03-22T05:00:26;101161.31;;;6.65;100.00
41945;BME280;63122;52.424;13.458;2024-03-22T05:02:17;101166.41;;;6.66;100.00
41945;BME280;63122;52.424;13.458;2024-03-22T05:04:09;101151.88;;;6.62;100.00
41945;BME280;63122;52.424;13.458;2024-03-22T05:06:03;101158.69;;;6.65;100.00
41945;BME280;63122;52.424;13.458;2024-03-22T05:07:55;101160.47;;;6.64;100.00
41945;BME280;63122;52.424;13.458;2024-03-22T05:09:46;101157.25;;;6.60;100.00
41945;BME280;63122;52.424;13.458;2024-03-22T05:11:38;101159.97;;;6.59;100.00
41945;BME280;63122;52.424;13.458;2024-03-22T05:13:29;101153.53;;;6.63;100.00
41945;BME280;63122;52.424;13.458;2024-03-22T05:15:22;101145.34;;;6.68;100.00
41945;BME280;63122;52.424;13.458;2024-03-22T05:17:13;101152.16;;;6.70;100.00
41945;BME280;63122;52.424;13.458;2024-03-22T05:19:05;101153.94;;;6.70;100.00
41945;BME280;63122;52.424;13.458;2024-03-22T05:20:57;101152.34;;;6.67;100.00
41945;BME280;63122;52.424;13.458;2024-03-22T05:22:51;101147.25;;;6.66;100.00
41945;BME280;63122;52.424;13.458;2024-03-22T05:24:43;101145.13;;;6.71;100.00
41945;BME280;63122;52.424;13.458;2024-03-22T05:26:34;101147.00;;;6.69;100.00
41945;BME280;63122;52.424;13.458;2024-03-22T05:28:26;101136.44;;;6.70;100.00
41945;BME280;63122;52.424;13.458;2024-03-22T05:30:18;101141.53;;;6.72;100.00
41945;BME280;63122;52.424;13.458;2024-03-22T05:32:09;101124.63;;;6.76;100.00
41945;BME280;63122;52.424;13.458;2024-03-22T05:34:01;101127.25;;;6.76;100.00
41945;BME280;63122;52.424;13.458;2024-03-22T05:35:53;101123.66;;;6.77;100.00
41945;BME280;63122;52.424;13.458;2024-03-22T05:37:44;101119.38;;;6.76;100.00
41945;BME280;63122;52.424;13.458;2024-03-22T05:39:39;101128.56;;;6.70;100.00
41945;BME280;63122;52.424;13.458;2024-03-22T05:41:31;101117.44;;;6.67;100.00
41945;BME280;63122;52.424;13.458;2024-03-22T05:43:22;101121.75;;;6.68;100.00
41945;BME280;63122;52.424;13.458;2024-03-22T05:45:14;101119.13;;;6.68;100.00
41945;BME280;63122;52.424;13.458;2024-03-22T05:47:06;101108.75;;;6.66;100.00
41945;BME280;63122;52.424;13.458;2024-03-22T05:48:57;101114.69;;;6.68;100.00
41945;BME280;63122;52.424;13.458;2024-03-22T05:50:49;101109.34;;;6.70;100.00
41945;BME280;63122;52.424;13.458;2024-03-22T05:52:41;101100.53;;;6.71;100.00
41945;BME280;63122;52.424;13.458;2024-03-22T05:54:32;101107.13;;;6.76;100.00
41945;BME280;63122;52.424;13.458;2024-03-22T05:56:27;101101.88;;;6.76;100.00
41945;BME280;63122;52.424;13.458;2024-03-22T05:58:18;101106.88;;;6.80;100.00
41945;BME280;63122;52.424;13.458;2024-03-22T06:00:10;101101.75;;;6.78;100.00
41945;BME280;63122;52.424;13.458;2024-03-22T06:02:02;101097.94;;;6.82;100.00
41945;BME280;63122;52.424;13.458;2024-03-22T06:03:54;101096.25;;;6.81;100.00
41945;BME280;63122;52.424;13.458;2024-03-22T06:05:45;101098.88;;;6.81;100.00
41945;BME280;63122;52.424;13.458;2024-03-22T06:07:37;101094.47;;;6.82;100.00
41945;BME280;63122;52.424;13.458;2024-03-22T06:09:30;101090.81;;;6.84;100.00
41945;BME280;63122;52.424;13.458;2024-03-22T06:11:28;101097.59;;;6.87;100.00
41945;BME280;63122;52.424;13.458;2024-03-22T06:13:20;101093.44;;;6.84;100.00
41945;BME280;63122;52.424;13.458;2024-03-22T06:15:12;101081.38;;;6.82;100.00
41945;BME280;63122;52.424;13.458;2024-03-22T06:17:03;101079.38;;;6.85;100.00
41945;BME280;63122;52.424;13.458;2024-03-22T06:18:55;101073.03;;;6.88;100.00
41945;BME280;63122;52.424;13.458;2024-03-22T06:20:47;101065.78;;;6.91;100.00
41945;BME280;63122;52.424;13.458;2024-03-22T06:22:38;101067.19;;;6.96;100.00
41945;BME280;63122;52.424;13.458;2024-03-22T06:24:30;101080.41;;;6.94;100.00
41945;BME280;63122;52.424;13.458;2024-03-22T06:26:22;101075.31;;;6.93;100.00
41945;BME280;63122;52.424;13.458;2024-03-22T06:28:16;101078.50;;;6.96;100.00
41945;BME280;63122;52.424;13.458;2024-03-22T06:30:08;101080.31;;;6.96;100.00
41945;BME280;63122;52.424;13.458;2024-03-22T06:32:00;101076.75;;;6.97;100.00
41945;BME280;63122;52.424;13.458;2024-03-22T06:33:52;101070.53;;;6.98;100.00
41945;BME280;63122;52.424;13.458;2024-03-22T06:35:43;101060.53;;;7.03;100.00
41945;BME280;63122;52.424;13.458;2024-03-22T06:37:35;101059.94;;;6.99;100.00
41945;BME280;63122;52.424;13.458;2024-03-22T06:39:27;101059.56;;;7.04;100.00
41945;BME280;63122;52.424;13.458;2024-03-22T06:41:19;101057.19;;;7.01;100.00
41945;BME280;63122;52.424;13.458;2024-03-22T06:43:11;101063.28;;;7.01;100.00
41945;BME280;63122;52.424;13.458;2024-03-22T06:45:06;101066.38;;;7.06;100.00
41945;BME280;63122;52.424;13.458;2024-03-22T06:46:58;101063.63;;;7.08;100.00
41945;BME280;63122;52.424;13.458;2024-03-22T06:48:50;101054.78;;;7.09;100.00
41945;BME280;63122;52.424;13.458;2024-03-22T06:50:41;101055.41;;;7.13;100.00
41945;BME280;63122;52.424;13.458;2024-03-22T06:52:33;101058.03;;;7.13;100.00
41945;BME280;63122;52.424;13.458;2024-03-22T06:54:25;101062.44;;;7.12;100.00
41945;BME280;63122;52.424;13.458;2024-03-22T06:56:17;101051.81;;;7.14;100.00
41945;BME280;63122;52.424;13.458;2024-03-22T06:58:08;101049.09;;;7.15;100.00
41945;BME280;63122;52.424;13.458;2024-03-22T07:00:00;101042.38;;;7.11;100.00
41945;BME280;63122;52.424;13.458;2024-03-22T07:01:54;101052.88;;;7.11;100.00
41945;BME280;63122;52.424;13.458;2024-03-22T07:03:46;101041.56;;;7.11;100.00
41945;BME280;63122;52.424;13.458;2024-03-22T07:05:38;101041.31;;;7.14;100.00
41945;BME280;63122;52.424;13.458;2024-03-22T07:07:29;101040.25;;;7.16;100.00
41945;BME280;63122;52.424;13.458;2024-03-22T07:09:22;101037.16;;;7.23;100.00
41945;BME280;63122;52.424;13.458;2024-03-22T07:11:14;101038.47;;;7.28;100.00
41945;BME280;63122;52.424;13.458;2024-03-22T07:13:06;101041.41;;;7.35;100.00
41945;BME280;63122;52.424;13.458;2024-03-22T07:14:59;101034.66;;;7.32;100.00
41945;BME280;63122;52.424;13.458;2024-03-22T07:16:54;101035.47;;;7.33;100.00
41945;BME280;63122;52.424;13.458;2024-03-22T07:18:45;101031.78;;;7.35;100.00
41945;BME280;63122;52.424;13.458;2024-03-22T07:20:37;101033.44;;;7.37;100.00
41945;BME280;63122;52.424;13.458;2024-03-22T07:22:28;101032.47;;;7.38;100.00
41945;BME280;63122;52.424;13.458;2024-03-22T07:24:20;101031.16;;;7.43;100.00
41945;BME280;63122;52.424;13.458;2024-03-22T07:26:13;101032.69;;;7.46;100.00
41945;BME280;63122;52.424;13.458;2024-03-22T07:28:04;101035.22;;;7.47;100.00
41945;BME280;63122;52.424;13.458;2024-03-22T07:29:56;101020.44;;;7.46;100.00
41945;BME280;63122;52.424;13.458;2024-03-22T07:31:47;101031.50;;;7.50;100.00
41945;BME280;63122;52.424;13.458;2024-03-22T07:33:42;101032.94;;;7.54;100.00
41945;BME280;63122;52.424;13.458;2024-03-22T07:35:34;101029.34;;;7.55;100.00
41945;BME280;63122;52.424;13.458;2024-03-22T07:37:26;101026.94;;;7.52;100.00
41945;BME280;63122;52.424;13.458;2024-03-22T07:39:17;101023.72;;;7.60;100.00
41945;BME280;63122;52.424;13.458;2024-03-22T07:41:09;101025.84;;;7.66;100.00
41945;BME280;63122;52.424;13.458;2024-03-22T07:43:00;101016.69;;;7.60;100.00
41945;BME280;63122;52.424;13.458;2024-03-22T07:44:53;101010.34;;;7.63;100.00
41945;BME280;63122;52.424;13.458;2024-03-22T07:46:44;101013.94;;;7.62;100.00
41945;BME280;63122;52.424;13.458;2024-03-22T07:48:36;101025.84;;;7.66;100.00
41945;BME280;63122;52.424;13.458;2024-03-22T07:50:30;101036.59;;;7.63;100.00
41945;BME280;63122;52.424;13.458;2024-03-22T07:52:22;101009.97;;;7.68;100.00
41945;BME280;63122;52.424;13.458;2024-03-22T07:54:15;101016.91;;;7.69;100.00
41945;BME280;63122;52.424;13.458;2024-03-22T07:56:07;101010.22;;;7.64;100.00
41945;BME280;63122;52.424;13.458;2024-03-22T07:57:58;101015.13;;;7.69;100.00
41945;BME280;63122;52.424;13.458;2024-03-22T07:59:50;100999.94;;;7.73;100.00
41945;BME280;63122;52.424;13.458;2024-03-22T08:01:41;101016.78;;;7.70;100.00
41945;BME280;63122;52.424;13.458;2024-03-22T08:03:33;101003.41;;;7.73;100.00
41945;BME280;63122;52.424;13.458;2024-03-22T08:05:25;101007.44;;;7.77;100.00
41945;BME280;63122;52.424;13.458;2024-03-22T08:07:19;101003.72;;;7.80;100.00
41945;BME280;63122;52.424;13.458;2024-03-22T08:09:10;101000.97;;;7.82;100.00
41945;BME280;63122;52.424;13.458;2024-03-22T08:11:02;101006.22;;;7.82;100.00
41945;BME280;63122;52.424;13.458;2024-03-22T08:12:54;101009.31;;;7.87;100.00
41945;BME280;63122;52.424;13.458;2024-03-22T08:14:46;100999.66;;;7.87;100.00
41945;BME280;63122;52.424;13.458;2024-03-22T08:16:38;101001.78;;;7.93;100.00
41945;BME280;63122;52.424;13.458;2024-03-22T08:18:29;100994.47;;;7.97;100.00
41945;BME280;63122;52.424;13.458;2024-03-22T08:20:21;100982.88;;;8.00;100.00
41945;BME280;63122;52.424;13.458;2024-03-22T08:22:13;100986.91;;;8.04;100.00
41945;BME280;63122;52.424;13.458;2024-03-22T08:24:07;100987.59;;;8.06;100.00
41945;BME280;63122;52.424;13.458;2024-03-22T08:25:59;100989.97;;;8.09;100.00
41945;BME280;63122;52.424;13.458;2024-03-22T08:27:51;100983.06;;;8.08;100.00
41945;BME280;63122;52.424;13.458;2024-03-22T08:29:42;100986.97;;;8.14;100.00
41945;BME280;63122;52.424;13.458;2024-03-22T08:31:34;100987.25;;;8.11;100.00
41945;BME280;63122;52.424;13.458;2024-03-22T08:33:25;100977.31;;;8.14;100.00
41945;BME280;63122;52.424;13.458;2024-03-22T08:35:17;100984.41;;;8.24;100.00
41945;BME280;63122;52.424;13.458;2024-03-22T08:37:09;100977.13;;;8.27;100.00
41945;BME280;63122;52.424;13.458;2024-03-22T08:39:00;100975.47;;;8.26;100.00
41945;BME280;63122;52.424;13.458;2024-03-22T08:40:55;100982.63;;;8.24;100.00
41945;BME280;63122;52.424;13.458;2024-03-22T08:42:46;100970.19;;;8.26;100.00
41945;BME280;63122;52.424;13.458;2024-03-22T08:44:38;100964.81;;;8.28;100.00
41945;BME280;63122;52.424;13.458;2024-03-22T08:46:30;100964.81;;;8.28;100.00
41945;BME280;63122;52.424;13.458;2024-03-22T08:48:23;100951.53;;;8.29;100.00
41945;BME280;63122;52.424;13.458;2024-03-22T08:50:15;100948.50;;;8.34;100.00
41945;BME280;63122;52.424;13.458;2024-03-22T08:52:06;100954.34;;;8.38;100.00
41945;BME280;63122;52.424;13.458;2024-03-22T08:53:59;100937.59;;;8.39;100.00
41945;BME280;63122;52.424;13.458;2024-03-22T08:55:50;100951.72;;;8.38;100.00
41945;BME280;63122;52.424;13.458;2024-03-22T08:57:44;100938.56;;;8.38;100.00
41945;BME280;63122;52.424;13.458;2024-03-22T08:59:36;100927.94;;;8.39;100.00
41945;BME280;63122;52.424;13.458;2024-03-22T09:01:28;100925.03;;;8.42;100.00
41945;BME280;63122;52.424;13.458;2024-03-22T09:03:20;100917.28;;;8.41;100.00
41945;BME280;63122;52.424;13.458;2024-03-22T09:05:11;100922.25;;;8.44;100.00
41945;BME280;63122;52.424;13.458;2024-03-22T09:07:03;100915.22;;;8.44;100.00
41945;BME280;63122;52.424;13.458;2024-03-22T09:08:55;100914.72;;;8.50;100.00
41945;BME280;63122;52.424;13.458;2024-03-22T09:10:47;100907.66;;;8.51;100.00
41945;BME280;63122;52.424;13.458;2024-03-22T09:12:39;100902.97;;;8.55;100.00
41945;BME280;63122;52.424;13.458;2024-03-22T09:14:32;100903.56;;;8.58;100.00
41945;BME280;63122;52.424;13.458;2024-03-22T09:16:24;100908.41;;;8.63;100.00
41945;BME280;63122;52.424;13.458;2024-03-22T09:18:16;100904.25;;;8.60;100.00
41945;BME280;63122;52.424;13.458;2024-03-22T09:20:09;100898.72;;;8.63;100.00
41945;BME280;63122;52.424;13.458;2024-03-22T09:22:00;100901.19;;;8.65;100.00
41945;BME280;63122;52.424;13.458;2024-03-22T09:23:52;100890.28;;;8.70;100.00
41945;BME280;63122;52.424;13.458;2024-03-22T09:25:45;100898.59;;;8.75;100.00
41945;BME280;63122;52.424;13.458;2024-03-22T09:27:36;100897.53;;;8.77;100.00
41945;BME280;63122;52.424;13.458;2024-03-22T09:29:28;100899.34;;;8.87;100.00
41945;BME280;63122;52.424;13.458;2024-03-22T09:31:22;100893.13;;;8.98;100.00
41945;BME280;63122;52.424;13.458;2024-03-22T09:33:13;100894.41;;;9.03;100.00
41945;BME280;63122;52.424;13.458;2024-03-22T09:35:06;100880.69;;;9.10;100.00
41945;BME280;63122;52.424;13.458;2024-03-22T09:36:58;100880.56;;;9.11;100.00
41945;BME280;63122;52.424;13.458;2024-03-22T09:38:49;100884.72;;;9.14;100.00
41945;BME280;63122;52.424;13.458;2024-03-22T09:40:41;100885.13;;;9.19;100.00
41945;BME280;63122;52.424;13.458;2024-03-22T09:42:33;100890.38;;;9.19;100.00
41945;BME280;63122;52.424;13.458;2024-03-22T09:44:29;100885.41;;;9.16;100.00
41945;BME280;63122;52.424;13.458;2024-03-22T09:46:24;100887.50;;;9.22;100.00
41945;BME280;63122;52.424;13.458;2024-03-22T09:48:17;100885.00;;;9.20;100.00
41945;BME280;63122;52.424;13.458;2024-03-22T09:50:09;100888.59;;;9.19;100.00
41945;BME280;63122;52.424;13.458;2024-03-22T09:52:02;100883.91;;;9.23;100.00
41945;BME280;63122;52.424;13.458;2024-03-22T09:53:55;100880.16;;;9.35;100.00
41945;BME280;63122;52.424;13.458;2024-03-22T09:55:49;100875.47;;;9.39;100.00
41945;BME280;63122;52.424;13.458;2024-03-22T09:57:42;100880.84;;;9.47;100.00
41945;BME280;63122;52.424;13.458;2024-03-22T09:59:34;100876.16;;;9.41;100.00
41945;BME280;63122;52.424;13.458;2024-03-22T10:01:29;100870.88;;;9.41;100.00
41945;BME280;63122;52.424;13.458;2024-03-22T10:03:20;100871.97;;;9.39;100.00
41945;BME280;63122;52.424;13.458;2024-03-22T10:05:12;100873.34;;;9.43;100.00
41945;BME280;63122;52.424;13.458;2024-03-22T10:07:04;100865.19;;;9.46;100.00
41945;BME280;63122;52.424;13.458;2024-03-22T10:08:58;100867.81;;;9.46;100.00
41945;BME280;63122;52.424;13.458;2024-03-22T10:10:49;100856.75;;;9.52;100.00
41945;BME280;63122;52.424;13.458;2024-03-22T10:12:41;100858.66;;;9.60;100.00
41945;BME280;63122;52.424;13.458;2024-03-22T10:14:32;100860.88;;;9.64;100.00
41945;BME280;63122;52.424;13.458;2024-03-22T10:16:24;100849.66;;;9.62;100.00
41945;BME280;63122;52.424;13.458;2024-03-22T10:18:18;100861.44;;;9.68;100.00
41945;BME280;63122;52.424;13.458;2024-03-22T10:20:12;100860.56;;;9.77;100.00
41945;BME280;63122;52.424;13.458;2024-03-22T10:22:04;100854.06;;;9.82;100.00
41945;BME280;63122;52.424;13.458;2024-03-22T10:23:56;100855.81;;;9.91;100.00
41945;BME280;63122;52.424;13.458;2024-03-22T10:25:47;100845.28;;;9.91;100.00
41945;BME280;63122;52.424;13.458;2024-03-22T10:27:39;100854.72;;;9.93;100.00
41945;BME280;63122;52.424;13.458;2024-03-22T10:29:32;100836.81;;;9.97;100.00
41945;BME280;63122;52.424;13.458;2024-03-22T10:31:24;100846.91;;;10.02;100.00
41945;BME280;63122;52.424;13.458;2024-03-22T10:33:18;100843.31;;;10.03;100.00
41945;BME280;63122;52.424;13.458;2024-03-22T10:35:12;100842.19;;;10.05;100.00
41945;BME280;63122;52.424;13.458;2024-03-22T10:37:03;100847.56;;;10.14;100.00
41945;BME280;63122;52.424;13.458;2024-03-22T10:38:56;100836.47;;;10.20;100.00
41945;BME280;63122;52.424;13.458;2024-03-22T10:40:48;100831.63;;;10.15;100.00
41945;BME280;63122;52.424;13.458;2024-03-22T10:42:41;100823.03;;;10.13;100.00
41945;BME280;63122;52.424;13.458;2024-03-22T10:44:33;100821.91;;;10.16;100.00
41945;BME280;63122;52.424;13.458;2024-03-22T10:46:29;100822.75;;;10.16;100.00
41945;BME280;63122;52.424;13.458;2024-03-22T10:48:24;100828.78;;;10.27;100.00
41945;BME280;63122;52.424;13.458;2024-03-22T10:50:20;100816.16;;;10.30;100.00
41945;BME280;63122;52.424;13.458;2024-03-22T10:52:13;100817.91;;;10.40;100.00
41945;BME280;63122;52.424;13.458;2024-03-22T10:54:06;100813.59;;;10.48;100.00
41945;BME280;63122;52.424;13.458;2024-03-22T10:56:00;100818.66;;;10.60;100.00
41945;BME280;63122;52.424;13.458;2024-03-22T10:57:54;100805.19;;;10.63;100.00
41945;BME280;63122;52.424;13.458;2024-03-22T10:59:46;100818.91;;;10.85;100.00
41945;BME280;63122;52.424;13.458;2024-03-22T11:01:38;100804.53;;;10.97;100.00
41945;BME280;63122;52.424;13.458;2024-03-22T11:03:35;100794.66;;;10.99;100.00
41945;BME280;63122;52.424;13.458;2024-03-22T11:05:27;100795.88;;;11.05;100.00
41945;BME280;63122;52.424;13.458;2024-03-22T11:07:20;100797.84;;;11.03;100.00
41945;BME280;63122;52.424;13.458;2024-03-22T11:09:18;100790.59;;;11.05;100.00
41945;BME280;63122;52.424;13.458;2024-03-22T11:11:10;100788.63;;;11.07;100.00
41945;BME280;63122;52.424;13.458;2024-03-22T11:13:03;100776.25;;;11.07;100.00
41945;BME280;63122;52.424;13.458;2024-03-22T11:14:55;100783.50;;;11.05;100.00
41945;BME280;63122;52.424;13.458;2024-03-22T11:16:47;100778.88;;;11.07;100.00
41945;BME280;63122;52.424;13.458;2024-03-22T11:18:41;100781.03;;;11.04;100.00
41945;BME280;63122;52.424;13.458;2024-03-22T11:20:36;100776.41;;;11.06;100.00
41945;BME280;63122;52.424;13.458;2024-03-22T11:22:27;100764.94;;;11.15;100.00
41945;BME280;63122;52.424;13.458;2024-03-22T11:24:19;100765.81;;;11.24;100.00
41945;BME280;63122;52.424;13.458;2024-03-22T11:26:10;100766.72;;;11.33;100.00
41945;BME280;63122;52.424;13.458;2024-03-22T11:28:03;100758.34;;;11.19;100.00
41945;BME280;63122;52.424;13.458;2024-03-22T11:29:54;100758.97;;;11.13;100.00
41945;BME280;63122;52.424;13.458;2024-03-22T11:31:46;100763.81;;;11.18;100.00
41945;BME280;63122;52.424;13.458;2024-03-22T11:33:42;100758.97;;;11.13;100.00
41945;BME280;63122;52.424;13.458;2024-03-22T11:35:35;100753.03;;;11.11;100.00
41945;BME280;63122;52.424;13.458;2024-03-22T11:37:27;100754.00;;;11.10;100.00
41945;BME280;63122;52.424;13.458;2024-03-22T11:39:19;100776.25;;;11.07;100.00
41945;BME280;63122;52.424;13.458;2024-03-22T11:41:11;100756.09;;;11.06;100.00
41945;BME280;63122;52.424;13.458;2024-03-22T11:43:04;100752.97;;;11.03;100.00
41945;BME280;63122;52.424;13.458;2024-03-22T11:44:56;100765.47;;;11.01;100.00
41945;BME280;63122;52.424;13.458;2024-03-22T11:46:48;100757.63;;;11.09;100.00